Time;durP1;ratioP1;P1;durP2;ratioP2;P2;SDS_P1;SDS_P2;PMS_P1;PMS_P2;Temp;Humidity;BMP_temperature;BMP_pressure;BME280_temperature;BME280_humidity;BME280_pressure;Samples;Min_cycle;Max_cycle;Signal;HPM_P1;HPM_P2
2022/09/26 00:01:46;;;;;;;1.00;0.50;;;7.80;99.90;;;;;;5096085;28;20418;-88
2022/09/26 00:04:19;;;;;;;4.93;1.00;;;7.90;99.90;;;;;;5094247;28;20180;-88
2022/09/26 00:06:45;;;;;;;1.30;0.77;;;7.90;99.90;;;;;;5094760;28;20218;-87
2022/09/26 00:09:12;;;;;;;3.07;0.73;;;8.00;99.90;;;;;;5094676;28;20432;-87
2022/09/26 00:11:38;;;;;;;2.60;0.40;;;7.90;99.90;;;;;;5094651;28;20172;-88
2022/09/26 00:14:09;;;;;;;3.00;0.70;;;8.00;99.90;;;;;;5094616;28;20440;-88
2022/09/26 00:16:35;;;;;;;3.03;0.67;;;8.10;99.90;;;;;;5094761;28;20497;-89
2022/09/26 00:19:03;;;;;;;3.47;0.67;;;8.10;99.90;;;;;;5094204;28;20953;-89
2022/09/26 00:21:32;;;;;;;0.60;0.43;;;8.10;99.90;;;;;;5094582;28;20185;-88
2022/09/26 00:23:59;;;;;;;1.30;0.63;;;8.10;99.90;;;;;;5095717;28;20421;-89
2022/09/26 00:26:27;;;;;;;1.90;0.97;;;8.10;99.90;;;;;;5094560;28;20434;-86
2022/09/26 00:28:53;;;;;;;3.50;1.70;;;8.20;99.90;;;;;;5095427;28;20439;-87
2022/09/26 00:31:22;;;;;;;1.03;0.73;;;8.10;99.90;;;;;;5095782;28;20512;-87
2022/09/26 00:33:48;;;;;;;1.77;0.33;;;8.10;99.90;;;;;;5095476;28;20564;-87
2022/09/26 00:36:14;;;;;;;1.10;0.60;;;8.00;99.90;;;;;;5095476;28;20918;-87
2022/09/26 00:38:39;;;;;;;1.27;0.40;;;8.00;99.90;;;;;;5095534;28;20184;-87
2022/09/26 00:41:05;;;;;;;1.37;0.53;;;8.00;99.90;;;;;;5095126;28;20423;-88
2022/09/26 00:43:40;;;;;;;2.13;0.60;;;7.90;99.90;;;;;;5095452;28;20262;-90
2022/09/26 00:46:37;;;;;;;3.00;1.00;;;7.80;99.90;;;;;;5094010;28;20471;-88
2022/09/26 00:49:13;;;;;;;2.37;0.60;;;7.80;99.90;;;;;;5093476;28;20426;-88
2022/09/26 00:51:43;;;;;;;9.77;0.87;;;7.90;99.90;;;;;;5095395;28;20402;-89
2022/09/26 00:54:12;;;;;;;3.80;0.87;;;7.80;99.90;;;;;;5094361;28;20812;-88
2022/09/26 00:56:39;;;;;;;1.33;0.60;;;7.80;99.90;;;;;;5095433;28;20407;-88
2022/09/26 00:59:17;;;;;;;3.33;0.87;;;7.70;99.90;;;;;;5095210;28;20424;-88
2022/09/26 01:01:43;;;;;;;1.20;0.40;;;7.90;99.90;;;;;;5093377;28;20935;-88
2022/09/26 01:04:11;;;;;;;1.00;0.50;;;7.90;99.90;;;;;;5093560;28;20427;-88
2022/09/26 01:06:36;;;;;;;1.10;0.53;;;7.90;99.90;;;;;;5094999;28;20440;-89
2022/09/26 01:09:07;;;;;;;1.20;0.63;;;7.90;99.90;;;;;;5095001;28;20514;-87
2022/09/26 01:11:37;;;;;;;1.70;0.50;;;7.80;99.90;;;;;;5095074;28;20190;-88
2022/09/26 01:14:04;;;;;;;2.50;0.77;;;7.80;99.90;;;;;;5094965;28;20424;-89
2022/09/26 01:16:30;;;;;;;1.13;0.60;;;7.80;99.90;;;;;;5094132;28;20448;-89
2022/09/26 01:18:56;;;;;;;1.23;0.23;;;7.80;99.90;;;;;;5094799;28;20899;-88
2022/09/26 01:21:37;;;;;;;1.57;0.30;;;7.90;99.90;;;;;;5093931;28;20948;-89
2022/09/26 01:24:27;;;;;;;1.83;0.73;;;7.90;99.90;;;;;;5095121;28;20966;-89
2022/09/26 01:27:08;;;;;;;2.23;0.47;;;7.80;99.90;;;;;;5093766;28;20433;-90
2022/09/26 01:30:20;;;;;;;2.67;0.57;;;7.80;99.90;;;;;;5094774;28;20403;-91
2022/09/26 01:33:02;;;;;;;4.70;0.80;;;7.80;99.90;;;;;;4976222;28;20967;-88
2022/09/26 01:35:53;;;;;;;1.87;0.60;;;7.80;99.90;;;;;;5077878;28;20547;-88
2022/09/26 01:38:31;;;;;;;1.70;0.30;;;7.70;99.90;;;;;;5094500;28;20422;-89
2022/09/26 01:41:23;;;;;;;2.93;0.30;;;7.70;99.90;;;;;;5094433;28;20414;-88
2022/09/26 01:43:58;;;;;;;1.60;0.23;;;7.60;99.90;;;;;;5091356;28;20457;-87
2022/09/26 01:46:34;;;;;;;3.40;0.50;;;7.70;99.90;;;;;;5093392;28;20820;-87
2022/09/26 01:49:13;;;;;;;2.47;0.50;;;7.70;99.90;;;;;;5093953;28;20461;-88
2022/09/26 01:51:59;;;;;;;1.30;1.03;;;7.60;99.90;;;;;;5093048;28;20454;-87
2022/09/26 01:54:35;;;;;;;1.80;0.40;;;7.70;99.90;;;;;;5093114;28;20430;-87
2022/09/26 01:57:05;;;;;;;2.40;0.60;;;7.70;99.90;;;;;;5092968;28;20428;-88
2022/09/26 01:59:37;;;;;;;1.20;0.40;;;7.80;99.90;;;;;;5101348;28;20378;-88
2022/09/26 02:02:11;;;;;;;1.23;0.50;;;7.70;99.90;;;;;;5099803;28;20951;-85
2022/09/26 02:04:40;;;;;;;1.17;0.57;;;7.70;99.90;;;;;;5100402;28;20940;-87
2022/09/26 02:07:15;;;;;;;1.80;0.50;;;7.70;99.90;;;;;;5099469;28;20425;-87
2022/09/26 02:09:49;;;;;;;1.10;0.47;;;7.80;99.90;;;;;;5095692;28;20896;-88
2022/09/26 02:12:23;;;;;;;1.30;0.70;;;7.80;99.90;;;;;;5093036;28;20502;-86
2022/09/26 02:14:52;;;;;;;2.50;0.97;;;7.80;99.90;;;;;;5093486;28;20434;-86
2022/09/26 02:17:21;;;;;;;2.40;0.30;;;7.80;99.90;;;;;;5093125;28;20440;-88
2022/09/26 02:19:56;;;;;;;1.10;0.30;;;7.80;99.90;;;;;;5092115;28;20431;-85
2022/09/26 02:22:29;;;;;;;1.40;0.63;;;7.90;99.90;;;;;;5091650;28;20858;-86
2022/09/26 02:24:54;;;;;;;3.50;1.13;;;7.90;99.90;;;;;;5093285;28;20429;-88
2022/09/26 02:27:20;;;;;;;1.10;0.37;;;8.00;99.90;;;;;;5093458;28;20415;-88
2022/09/26 02:29:46;;;;;;;4.87;0.70;;;8.00;99.90;;;;;;5092189;28;20180;-88
2022/09/26 02:32:17;;;;;;;1.83;0.63;;;8.10;99.90;;;;;;5091940;28;20608;-86
2022/09/26 02:34:45;;;;;;;1.87;0.57;;;8.10;99.90;;;;;;5093550;28;20165;-88
2022/09/26 02:37:13;;;;;;;1.07;0.57;;;8.10;99.90;;;;;;5090548;28;20505;-85
2022/09/26 02:39:43;;;;;;;2.70;0.40;;;8.10;99.90;;;;;;5091505;28;20536;-85
2022/09/26 02:42:22;;;;;;;3.00;0.43;;;8.10;99.90;;;;;;5091545;28;20424;-86
2022/09/26 02:45:02;;;;;;;2.07;0.77;;;8.10;99.90;;;;;;5092965;28;21110;-86
2022/09/26 02:47:37;;;;;;;2.20;0.30;;;8.20;99.90;;;;;;5091304;28;20454;-86
2022/09/26 02:50:39;;;;;;;3.57;0.63;;;8.20;99.90;;;;;;5074933;28;20423;-87
2022/09/26 02:53:23;;;;;;;1.73;0.30;;;8.20;99.90;;;;;;5093117;28;20557;-87
2022/09/26 02:56:02;;;;;;;3.97;0.70;;;8.30;99.90;;;;;;5092986;28;20415;-86
2022/09/26 02:58:53;;;;;;;2.63;0.90;;;8.40;99.90;;;;;;5093020;28;20410;-87
2022/09/26 03:01:38;;;;;;;5.23;0.67;;;8.50;99.90;;;;;;5092981;28;20450;-86
2022/09/26 03:04:11;;;;;;;2.60;0.70;;;8.50;99.90;;;;;;5093046;28;20415;-86
2022/09/26 03:06:43;;;;;;;2.60;0.87;;;8.50;99.90;;;;;;5075037;28;20450;-89
2022/09/26 03:09:10;;;;;;;1.80;0.40;;;8.60;99.90;;;;;;5075006;28;21005;-86
2022/09/26 03:11:37;;;;;;;1.90;0.80;;;8.60;99.90;;;;;;5079308;28;20409;-87
2022/09/26 03:14:03;;;;;;;5.20;1.27;;;8.70;99.90;;;;;;5092914;28;20461;-86
2022/09/26 03:16:33;;;;;;;1.30;0.80;;;8.80;99.90;;;;;;5093041;28;20456;-87
2022/09/26 03:19:21;;;;;;;1.50;0.80;;;8.80;99.90;;;;;;5074327;28;21011;-86
2022/09/26 03:21:47;;;;;;;1.80;0.63;;;8.80;99.90;;;;;;5092779;28;20410;-88
2022/09/26 03:24:12;;;;;;;2.27;1.00;;;8.90;99.90;;;;;;5076316;28;20491;-88
2022/09/26 03:26:40;;;;;;;3.30;0.50;;;8.90;99.90;;;;;;5096968;28;20171;-87
2022/09/26 03:29:06;;;;;;;3.43;0.70;;;8.90;99.90;;;;;;5096534;28;20177;-86
2022/09/26 03:31:31;;;;;;;2.30;0.50;;;8.90;99.90;;;;;;5096457;28;20407;-86
2022/09/26 03:33:57;;;;;;;2.87;1.00;;;8.80;99.90;;;;;;5078163;28;20212;-86
2022/09/26 03:36:22;;;;;;;2.93;0.70;;;8.80;99.90;;;;;;5096389;28;20171;-88
2022/09/26 03:38:48;;;;;;;1.50;0.57;;;8.80;99.90;;;;;;5077806;28;20251;-86
2022/09/26 03:41:13;;;;;;;1.50;0.47;;;8.80;99.90;;;;;;5078129;28;20171;-85
2022/09/26 03:43:42;;;;;;;1.50;0.73;;;8.80;99.90;;;;;;5077753;28;20179;-86
2022/09/26 03:46:08;;;;;;;3.23;1.40;;;8.80;99.90;;;;;;5096124;28;20217;-86
2022/09/26 03:48:33;;;;;;;2.30;0.77;;;8.80;99.90;;;;;;5095745;28;20510;-85
2022/09/26 03:51:03;;;;;;;2.23;0.60;;;8.70;99.90;;;;;;5077891;28;20178;-86
2022/09/26 03:53:31;;;;;;;4.43;0.67;;;8.70;99.90;;;;;;5095884;28;20245;-85
2022/09/26 03:56:15;;;;;;;1.33;0.63;;;8.70;99.90;;;;;;5095879;28;20498;-86
2022/09/26 03:58:41;;;;;;;0.97;0.73;;;8.60;99.90;;;;;;5077859;28;20486;-88
2022/09/26 04:01:13;;;;;;;4.20;1.13;;;8.60;99.90;;;;;;5096227;28;20419;-87
2022/09/26 04:03:40;;;;;;;1.67;0.50;;;8.60;99.90;;;;;;5095455;28;20427;-87
2022/09/26 04:06:07;;;;;;;2.57;0.70;;;8.60;99.90;;;;;;5096336;28;20407;-89
2022/09/26 04:08:35;;;;;;;1.37;0.50;;;8.60;99.90;;;;;;5077831;28;20948;-85
2022/09/26 04:11:02;;;;;;;2.27;0.73;;;8.50;99.90;;;;;;5095675;28;20450;-86
2022/09/26 04:13:28;;;;;;;1.50;0.60;;;8.60;99.90;;;;;;5077670;28;20510;-86
2022/09/26 04:15:55;;;;;;;1.03;0.47;;;8.70;99.90;;;;;;5077594;28;20444;-86
2022/09/26 04:18:21;;;;;;;2.67;0.40;;;8.80;99.90;;;;;;5077157;28;20963;-88
2022/09/26 04:20:46;;;;;;;1.00;0.60;;;8.80;99.90;;;;;;5095612;28;20445;-87
2022/09/26 04:23:12;;;;;;;1.50;0.47;;;8.80;99.90;;;;;;5077256;28;20617;-87
2022/09/26 04:25:38;;;;;;;2.53;0.80;;;8.80;99.90;;;;;;5077331;28;20265;-87
2022/09/26 04:28:03;;;;;;;3.33;1.23;;;8.80;99.90;;;;;;5095320;28;20860;-86
2022/09/26 04:30:29;;;;;;;4.13;1.13;;;8.90;99.90;;;;;;5095303;28;20170;-87
2022/09/26 04:32:54;;;;;;;1.20;0.63;;;8.90;99.90;;;;;;5076658;28;20561;-86
2022/09/26 04:35:20;;;;;;;2.53;0.40;;;8.90;99.90;;;;;;5077061;28;20174;-87
2022/09/26 04:37:46;;;;;;;2.73;1.00;;;9.00;99.90;;;;;;5076843;28;20177;-90
2022/09/26 04:40:11;;;;;;;1.60;0.33;;;9.00;99.90;;;;;;5095300;28;20173;-87
2022/09/26 04:42:37;;;;;;;2.00;0.67;;;9.00;99.90;;;;;;5095271;28;20428;-88
2022/09/26 04:45:03;;;;;;;1.40;0.80;;;9.10;99.90;;;;;;5077395;28;20175;-88
2022/09/26 04:47:28;;;;;;;1.60;0.43;;;9.10;99.90;;;;;;5094283;28;20388;-87
2022/09/26 04:49:54;;;;;;;2.33;0.80;;;9.10;99.90;;;;;;5095173;28;20446;-87
2022/09/26 04:52:19;;;;;;;2.00;0.77;;;9.20;99.90;;;;;;5094828;28;20212;-87
2022/09/26 04:54:45;;;;;;;2.23;0.40;;;9.20;99.90;;;;;;5076958;28;20249;-86
2022/09/26 04:57:13;;;;;;;1.47;0.63;;;9.20;99.90;;;;;;5095002;28;20179;-88
2022/09/26 04:59:39;;;;;;;2.50;0.87;;;9.20;99.90;;;;;;5094941;28;20527;-87
2022/09/26 05:02:07;;;;;;;3.60;0.93;;;9.20;99.90;;;;;;5094582;28;20420;-89
2022/09/26 05:04:33;;;;;;;0.97;0.57;;;9.20;99.90;;;;;;5095034;28;20172;-86
2022/09/26 05:06:58;;;;;;;2.23;1.20;;;9.30;99.90;;;;;;5094546;28;20426;-86
2022/09/26 05:09:24;;;;;;;1.83;1.10;;;9.30;99.90;;;;;;5076152;28;20414;-84
2022/09/26 05:11:50;;;;;;;1.60;0.47;;;9.30;99.90;;;;;;5094435;28;20214;-86
2022/09/26 05:14:15;;;;;;;2.60;0.90;;;9.30;99.90;;;;;;5094393;28;20179;-86
2022/09/26 05:16:41;;;;;;;2.90;1.03;;;9.30;99.90;;;;;;5094010;28;20180;-86
2022/09/26 05:19:07;;;;;;;2.80;0.60;;;9.30;99.90;;;;;;5094313;28;20201;-86
2022/09/26 05:21:33;;;;;;;5.93;1.30;;;9.30;99.90;;;;;;5094234;28;20247;-86
2022/09/26 05:26:51;;;;;;;1.90;0.87;;;9.40;99.90;;;;;;5094451;28;20766;-85
2022/09/26 05:29:18;;;;;;;1.40;0.67;;;9.50;99.90;;;;;;5094179;28;20426;-84
2022/09/26 05:31:44;;;;;;;2.00;0.80;;;9.60;99.90;;;;;;5075398;28;20523;-85
2022/09/26 05:34:11;;;;;;;3.30;1.13;;;9.60;99.90;;;;;;5093968;28;20505;-86
2022/09/26 05:36:37;;;;;;;2.87;1.13;;;9.60;99.90;;;;;;5094000;28;20609;-85
2022/09/26 05:39:04;;;;;;;1.60;0.70;;;9.70;99.90;;;;;;5093885;28;20560;-85
2022/09/26 05:41:31;;;;;;;3.10;0.97;;;9.70;99.90;;;;;;5093941;28;20417;-84
2022/09/26 05:43:56;;;;;;;1.87;0.80;;;9.70;99.90;;;;;;5093576;28;20421;-84
2022/09/26 05:46:23;;;;;;;2.93;0.60;;;9.70;99.90;;;;;;5093044;28;20502;-86
2022/09/26 05:48:49;;;;;;;1.60;0.80;;;9.80;99.90;;;;;;5093683;28;20526;-85
2022/09/26 05:51:16;;;;;;;7.80;0.70;;;9.90;99.90;;;;;;5093624;28;20426;-86
2022/09/26 05:53:44;;;;;;;6.17;1.10;;;9.90;99.90;;;;;;5093446;28;20781;-86
2022/09/26 05:56:11;;;;;;;3.23;0.90;;;9.90;99.90;;;;;;5093446;28;20470;-85
2022/09/26 05:58:38;;;;;;;1.83;0.60;;;9.90;99.90;;;;;;5093509;28;20775;-85
2022/09/26 06:01:12;;;;;;;2.07;0.80;;;9.90;99.90;;;;;;5093475;28;20752;-86
2022/09/26 06:03:42;;;;;;;2.53;0.63;;;9.90;99.90;;;;;;5093322;28;20469;-85
2022/09/26 06:06:13;;;;;;;1.47;0.33;;;10.00;99.90;;;;;;5075192;28;20410;-84
2022/09/26 06:08:39;;;;;;;0.97;0.40;;;10.10;99.90;;;;;;5075186;28;20423;-83
2022/09/26 06:11:07;;;;;;;1.93;0.40;;;10.10;99.90;;;;;;5093363;28;20407;-84
2022/09/26 06:13:34;;;;;;;2.50;0.50;;;10.30;99.90;;;;;;5075047;28;20811;-84
2022/09/26 06:16:05;;;;;;;1.53;0.73;;;10.30;99.90;;;;;;5093265;28;20423;-89
2022/09/26 06:18:35;;;;;;;1.40;0.83;;;10.30;99.90;;;;;;5093531;28;20408;-85
2022/09/26 06:21:08;;;;;;;2.80;0.63;;;10.30;99.90;;;;;;5093703;28;20848;-89
2022/09/26 06:23:34;;;;;;;1.30;0.30;;;10.30;99.90;;;;;;5093697;28;20464;-86
2022/09/26 06:26:01;;;;;;;2.90;0.90;;;10.20;99.90;;;;;;5093716;28;20494;-88
2022/09/26 06:28:27;;;;;;;2.53;0.93;;;10.20;99.90;;;;;;5094038;28;20823;-87
2022/09/26 06:30:53;;;;;;;3.23;0.87;;;10.20;99.90;;;;;;5094220;28;20418;-88
2022/09/26 06:33:19;;;;;;;4.20;0.83;;;10.10;99.90;;;;;;5093455;28;20504;-86
2022/09/26 06:35:44;;;;;;;4.73;1.00;;;10.20;99.90;;;;;;5076119;28;20823;-87
2022/09/26 06:38:10;;;;;;;3.47;1.20;;;10.20;99.90;;;;;;5093778;28;20424;-88
2022/09/26 06:40:36;;;;;;;2.20;1.00;;;10.20;99.90;;;;;;5094215;28;20165;-90
2022/09/26 06:43:01;;;;;;;3.97;1.00;;;10.20;99.90;;;;;;5093291;28;20208;-89
2022/09/26 06:45:27;;;;;;;1.40;0.70;;;10.20;99.90;;;;;;5093722;28;20339;-90
2022/09/26 06:47:53;;;;;;;2.27;1.03;;;10.20;99.90;;;;;;5093745;28;20260;-84
2022/09/26 06:50:19;;;;;;;3.03;0.90;;;10.30;99.90;;;;;;5075605;28;20173;-91
2022/09/26 06:52:45;;;;;;;2.57;1.10;;;10.40;99.90;;;;;;5094564;28;20426;-91
2022/09/26 06:55:10;;;;;;;2.23;1.03;;;10.50;99.90;;;;;;5094267;28;20399;-90
2022/09/26 06:57:41;;;;;;;1.20;0.73;;;10.70;99.90;;;;;;5094453;28;20217;-92
2022/09/26 07:00:09;;;;;;;2.20;0.83;;;10.90;99.90;;;;;;5096659;28;20165;-91
2022/09/26 07:02:35;;;;;;;2.80;1.47;;;11.00;99.90;;;;;;5097747;28;20834;-89
2022/09/26 07:05:01;;;;;;;1.23;0.63;;;11.20;99.90;;;;;;5079920;28;20769;-88
2022/09/26 07:07:29;;;;;;;1.93;0.60;;;11.30;99.90;;;;;;5097922;28;20418;-89
2022/09/26 07:09:55;;;;;;;3.40;0.90;;;11.20;99.90;;;;;;5098351;28;20917;-89
2022/09/26 07:12:21;;;;;;;3.17;0.87;;;11.10;99.90;;;;;;5098050;28;20484;-91
2022/09/26 07:14:46;;;;;;;1.50;0.70;;;11.00;99.90;;;;;;5097892;28;20495;-89
2022/09/26 07:17:14;;;;;;;1.77;1.30;;;10.90;99.90;;;;;;5097886;28;20171;-90
2022/09/26 07:19:40;;;;;;;1.70;0.70;;;10.90;99.90;;;;;;5097774;28;20166;-92
2022/09/26 07:22:06;;;;;;;1.93;0.73;;;10.80;99.90;;;;;;5097870;28;20409;-90
2022/09/26 07:24:33;;;;;;;3.00;0.87;;;10.80;99.90;;;;;;5097730;28;20425;-88
2022/09/26 07:27:00;;;;;;;2.10;0.83;;;10.80;99.90;;;;;;5097631;28;20409;-88
2022/09/26 07:29:25;;;;;;;2.03;0.50;;;10.70;99.90;;;;;;5097427;28;20503;-89
2022/09/26 07:31:51;;;;;;;3.30;0.97;;;10.70;99.90;;;;;;5096994;28;20921;-90
2022/09/26 07:34:16;;;;;;;1.93;0.60;;;10.70;99.90;;;;;;5097471;28;20177;-90
2022/09/26 07:36:41;;;;;;;2.63;0.73;;;10.70;99.90;;;;;;5079047;28;20250;-88
2022/09/26 07:39:07;;;;;;;2.13;1.17;;;10.70;99.90;;;;;;5096564;28;20173;-83
2022/09/26 07:41:32;;;;;;;5.13;1.50;;;10.70;99.90;;;;;;5096404;28;20181;-83
2022/09/26 07:43:58;;;;;;;1.50;0.30;;;10.70;99.90;;;;;;5078155;28;20238;-85
2022/09/26 07:51:56;;;;;;;2.47;0.97;;;10.70;99.90;;;;;;5096255;28;20456;-85
2022/09/26 07:54:22;;;;;;;1.93;1.00;;;10.70;99.90;;;;;;5096108;28;20419;-85
2022/09/26 07:56:48;;;;;;;2.70;0.80;;;10.80;99.90;;;;;;5080287;28;20425;-88
2022/09/26 07:59:14;;;;;;;1.80;1.23;;;10.90;99.90;;;;;;5100647;28;20487;-88
2022/09/26 08:01:39;;;;;;;2.63;0.70;;;11.10;99.90;;;;;;5099878;28;20473;-89
2022/09/26 08:04:05;;;;;;;6.53;1.97;;;11.30;99.90;;;;;;5081522;28;20211;-87
2022/09/26 08:06:33;;;;;;;2.17;1.27;;;11.50;99.90;;;;;;5097236;28;20166;-90
2022/09/26 08:08:59;;;;;;;2.60;1.20;;;11.70;99.90;;;;;;5078532;28;20701;-90
2022/09/26 08:11:26;;;;;;;3.73;1.20;;;11.80;99.90;;;;;;5095847;28;20408;-89
2022/09/26 08:13:52;;;;;;;3.97;1.70;;;11.90;99.90;;;;;;5096859;28;20889;-87
2022/09/26 08:16:19;;;;;;;3.33;2.17;;;12.10;99.90;;;;;;5096466;28;20436;-87
2022/09/26 08:18:45;;;;;;;4.00;1.93;;;12.40;99.90;;;;;;5095875;28;20425;-86
2022/09/26 08:21:11;;;;;;;4.00;1.53;;;13.00;99.90;;;;;;5096844;28;20518;-89
2022/09/26 08:23:36;;;;;;;3.80;1.23;;;13.50;99.90;;;;;;5096133;28;20985;-88
2022/09/26 08:26:03;;;;;;;1.20;0.97;;;13.90;99.90;;;;;;5096224;28;20174;-88
2022/09/26 08:28:29;;;;;;;2.33;1.10;;;13.80;99.90;;;;;;5096162;28;20616;-84
2022/09/26 08:30:59;;;;;;;3.43;1.10;;;14.20;45.10;;;;;;5095201;28;20498;-85
2022/09/26 08:33:25;;;;;;;2.30;0.87;;;14.90;1.00;;;;;;5095811;28;20200;-89
2022/09/26 08:35:51;;;;;;;2.50;1.80;;;15.10;1.00;;;;;;5095389;28;20413;-90
2022/09/26 08:38:16;;;;;;;2.67;0.97;;;15.50;99.90;;;;;;5095538;28;20474;-86
2022/09/26 08:40:51;;;;;;;2.10;0.80;;;14.60;1.00;;;;;;5096400;28;20203;-91
2022/09/26 08:43:50;;;;;;;2.83;0.83;;;14.10;1.00;;;;;;5097215;28;20218;-91
2022/09/26 08:46:55;;;;;;;3.20;1.60;;;14.50;1.00;;;;;;5095368;28;20458;-84
2022/09/26 08:49:26;;;;;;;3.00;1.40;;;13.90;1.00;;;;;;5093099;28;20423;-90
2022/09/26 08:51:54;;;;;;;2.27;1.20;;;14.10;1.50;;;;;;5093695;28;20404;-88
2022/09/26 08:54:27;;;;;;;2.43;1.03;;;14.40;1.00;;;;;;5093818;28;20904;-83
2022/09/26 08:57:00;;;;;;;3.87;1.40;;;14.50;1.00;;;;;;5093943;28;20912;-83
2022/09/26 08:59:36;;;;;;;4.33;1.30;;;14.40;1.00;;;;;;5093583;28;20507;-89
2022/09/26 09:02:09;;;;;;;3.20;1.27;;;14.10;1.00;;;;;;5091545;28;20464;-86
2022/09/26 09:04:50;;;;;;;8.23;1.47;;;14.00;36.90;;;;;;5110564;28;20477;-86
2022/09/26 09:07:21;;;;;;;3.53;1.53;;;14.20;1.00;;;;;;5114022;28;20509;-87
2022/09/26 09:09:48;;;;;;;5.93;1.80;;;14.20;1.00;;;;;;5115030;28;20449;-87
2022/09/26 09:12:21;;;;;;;4.33;1.60;;;14.30;1.00;;;;;;5115242;28;20515;-87
2022/09/26 09:15:14;;;;;;;2.53;1.37;;;14.50;1.00;;;;;;5115251;28;20983;-83
2022/09/26 09:18:09;;;;;;;5.70;1.67;;;14.60;1.00;;;;;;5114454;28;20419;-82
2022/09/26 09:20:56;;;;;;;2.73;1.87;;;14.50;1.00;;;;;;5114654;28;20418;-83
2022/09/26 09:23:33;;;;;;;3.97;1.57;;;14.40;6.30;;;;;;5114478;28;20465;-89
2022/09/26 09:26:16;;;;;;;1.80;1.17;;;14.10;1.00;;;;;;5096938;28;20465;-86
2022/09/26 09:29:02;;;;;;;4.57;1.70;;;14.00;1.00;;;;;;5114783;28;20423;-82
2022/09/26 09:31:31;;;;;;;5.67;1.70;;;14.00;1.00;;;;;;5114430;28;20407;-85
2022/09/26 09:34:00;;;;;;;6.23;2.37;;;14.40;95.60;;;;;;5096820;28;20500;-83
2022/09/26 09:36:33;;;;;;;1.77;1.07;;;14.80;1.00;;;;;;5096514;28;20416;-87
2022/09/26 09:39:04;;;;;;;5.93;1.57;;;15.10;99.90;;;;;;5096488;28;20420;-81
2022/09/26 09:41:45;;;;;;;4.80;2.30;;;15.30;99.90;;;;;;5114583;28;20546;-82
2022/09/26 09:45:02;;;;;;;4.83;1.40;;;15.80;99.90;;;;;;5096192;28;20490;-85
2022/09/26 09:47:28;;;;;;;4.20;1.87;;;16.30;57.10;;;;;;5051343;28;20471;-82
2022/09/26 09:50:01;;;;;;;2.67;0.93;;;16.20;1.00;;;;;;5108127;28;20436;-84
2022/09/26 09:52:48;;;;;;;3.87;1.80;;;15.40;99.90;;;;;;5091635;28;20539;-86
2022/09/26 09:55:53;;;;;;;2.80;1.87;;;15.00;99.90;;;;;;5092787;28;20419;-86
2022/09/26 09:58:56;;;;;;;2.10;1.57;;;14.80;99.90;;;;;;5092536;28;20416;-85
2022/09/26 10:01:31;;;;;;;1.93;1.00;;;15.40;1.00;;;;;;5092047;28;20448;-84
2022/09/26 10:04:05;;;;;;;1.57;1.17;;;15.50;99.90;;;;;;5074164;28;20499;-84
2022/09/26 10:06:31;;;;;;;4.20;1.10;;;15.20;99.90;;;;;;5092457;28;20502;-85
2022/09/26 10:08:57;;;;;;;2.43;1.20;;;15.20;1.00;;;;;;5092387;28;20951;-86
2022/09/26 10:11:40;;;;;;;1.73;0.67;;;15.10;16.20;;;;;;5092397;28;20199;-85
2022/09/26 10:14:12;;;;;;;2.00;0.77;;;14.70;99.90;;;;;;5093250;28;20171;-86
2022/09/26 10:17:09;;;;;;;2.97;0.70;;;14.30;1.00;;;;;;5092821;28;20495;-84
2022/09/26 10:19:37;;;;;;;6.70;1.00;;;14.10;1.00;;;;;;5075103;28;20421;-84
2022/09/26 10:22:08;;;;;;;2.70;1.47;;;14.20;1.00;;;;;;5075298;28;20447;-86
2022/09/26 10:24:39;;;;;;;6.60;0.90;;;14.20;1.00;;;;;;5093465;28;20420;-85
2022/09/26 10:27:21;;;;;;;3.60;0.47;;;14.30;1.00;;;;;;5093391;28;20419;-83
2022/09/26 10:29:57;;;;;;;2.40;0.60;;;14.10;99.90;;;;;;5093593;28;20404;-86
2022/09/26 10:32:27;;;;;;;1.33;0.70;;;14.10;99.10;;;;;;5075057;28;20417;-88
2022/09/26 10:35:25;;;;;;;2.23;0.60;;;14.20;1.00;;;;;;5092581;28;20411;-85
2022/09/26 10:38:05;;;;;;;1.70;0.73;;;14.10;99.90;;;;;;5093125;28;20412;-82
2022/09/26 10:40:46;;;;;;;1.50;0.50;;;14.00;99.90;;;;;;5093198;28;20409;-81
2022/09/26 10:43:50;;;;;;;1.50;0.93;;;14.10;99.90;;;;;;5093008;28;21029;-84
2022/09/26 10:46:20;;;;;;;3.70;0.77;;;14.20;99.90;;;;;;5092412;28;20459;-86
2022/09/26 10:48:57;;;;;;;2.20;0.47;;;14.50;99.90;;;;;;5093165;28;20911;-81
2022/09/26 10:51:32;;;;;;;2.13;0.90;;;14.70;9.60;;;;;;5093070;28;20400;-85
2022/09/26 10:54:10;;;;;;;2.73;0.60;;;14.70;99.90;;;;;;5074936;28;20415;-84
2022/09/26 10:56:41;;;;;;;1.40;0.67;;;14.60;99.90;;;;;;5093097;28;20411;-85
2022/09/26 10:59:09;;;;;;;1.43;0.50;;;14.30;1.00;;;;;;5081851;28;20415;-85
2022/09/26 11:01:42;;;;;;;2.50;0.50;;;14.20;1.00;;;;;;5074645;28;20460;-86
2022/09/26 11:07:08;;;;;;;0.83;0.40;;;15.30;60.10;;;;;;5093164;28;20416;-86
2022/09/26 11:09:35;;;;;;;3.73;0.67;;;15.20;1.00;;;;;;5093094;28;20772;-83
2022/09/26 11:12:25;;;;;;;1.80;0.40;;;15.50;99.90;;;;;;5092959;28;20421;-86
2022/09/26 11:14:58;;;;;;;2.20;0.67;;;15.50;99.90;;;;;;5060554;28;20775;-86
2022/09/26 11:17:49;;;;;;;1.80;0.60;;;15.40;1.00;;;;;;5092421;28;20435;-85
2022/09/26 11:20:35;;;;;;;3.60;0.50;;;15.50;1.00;;;;;;5092911;28;20765;-86
2022/09/26 11:23:34;;;;;;;2.50;0.70;;;15.30;99.90;;;;;;5092455;28;20580;-86
2022/09/26 11:26:11;;;;;;;1.10;0.57;;;15.20;1.00;;;;;;5092823;28;20429;-86
2022/09/26 11:28:50;;;;;;;2.83;0.63;;;15.10;99.90;;;;;;5092687;28;20409;-84
2022/09/26 11:31:41;;;;;;;1.27;0.37;;;14.90;99.90;;;;;;5092440;28;20411;-85
2022/09/26 11:34:12;;;;;;;1.37;0.60;;;14.50;1.00;;;;;;5092850;28;20421;-86
2022/09/26 11:37:08;;;;;;;1.10;0.40;;;14.40;1.00;;;;;;5087217;28;20439;-84
2022/09/26 11:39:49;;;;;;;2.93;0.63;;;14.20;1.00;;;;;;5092584;28;20453;-84
2022/09/26 11:42:30;;;;;;;1.33;0.40;;;14.30;1.00;;;;;;5081235;28;20415;-83
2022/09/26 11:44:58;;;;;;;2.30;0.63;;;13.90;99.90;;;;;;5092489;28;20426;-84
2022/09/26 11:48:07;;;;;;;3.30;0.93;;;13.80;1.00;;;;;;5095766;28;20992;-84
2022/09/26 11:51:00;;;;;;;1.47;0.73;;;13.60;1.00;;;;;;5090198;28;20419;-85
2022/09/26 11:53:34;;;;;;;2.83;0.40;;;13.50;1.00;;;;;;5066070;28;20454;-81
2022/09/26 11:56:15;;;;;;;3.33;0.70;;;13.50;1.00;;;;;;5078343;28;20485;-84
2022/09/26 11:58:49;;;;;;;0.93;0.40;;;13.40;1.00;;;;;;5075817;28;20473;-87
2022/09/26 12:01:44;;;;;;;1.10;0.40;;;13.30;1.00;;;;;;5071015;28;20414;-83
2022/09/26 12:04:31;;;;;;;1.43;0.50;;;13.30;1.00;;;;;;5082526;28;20502;-84
2022/09/26 12:07:18;;;;;;;1.97;0.60;;;13.30;99.90;;;;;;5057383;28;20414;-82
2022/09/26 12:10:13;;;;;;;0.80;0.43;;;13.20;99.90;;;;;;5075548;28;20398;-85
2022/09/26 12:13:00;;;;;;;2.40;1.10;;;13.20;99.90;;;;;;5057481;28;20414;-81
2022/09/26 12:15:36;;;;;;;1.43;0.30;;;13.20;99.90;;;;;;5081720;28;20451;-83
2022/09/26 12:18:24;;;;;;;2.80;0.90;;;13.20;99.90;;;;;;5076959;28;20422;-82
2022/09/26 12:21:15;;;;;;;3.27;0.60;;;13.30;99.90;;;;;;5095494;28;20410;-83
2022/09/26 12:23:50;;;;;;;4.00;0.90;;;13.30;99.90;;;;;;5077218;28;20989;-82
2022/09/26 12:26:56;;;;;;;2.40;1.10;;;13.30;99.90;;;;;;5095371;28;20407;-81
2022/09/26 12:29:44;;;;;;;0.93;0.30;;;13.30;99.90;;;;;;5095291;28;20941;-81
2022/09/26 12:32:32;;;;;;;2.40;0.40;;;13.40;99.90;;;;;;5094897;28;20852;-83
2022/09/26 12:35:17;;;;;;;1.77;0.50;;;13.30;99.90;;;;;;5094152;28;20407;-82
2022/09/26 12:38:27;;;;;;;1.40;0.60;;;13.30;99.90;;;;;;5095195;28;20403;-81
2022/09/26 12:41:17;;;;;;;3.37;1.00;;;13.30;99.90;;;;;;4993304;28;20430;-82
2022/09/26 12:44:01;;;;;;;4.10;1.07;;;13.20;99.90;;;;;;5072912;28;20885;-81
2022/09/26 12:46:29;;;;;;;1.97;0.80;;;13.20;99.90;;;;;;5094493;28;20461;-81
2022/09/26 12:49:33;;;;;;;3.00;0.40;;;13.30;99.90;;;;;;5094874;28;20416;-81
2022/09/26 12:52:22;;;;;;;2.50;1.03;;;13.30;99.90;;;;;;5076786;28;20414;-81
2022/09/26 12:55:11;;;;;;;0.57;0.23;;;13.30;99.90;;;;;;5094752;28;20406;-82
2022/09/26 12:58:09;;;;;;;2.03;1.00;;;13.20;99.90;;;;;;5093932;28;20409;-81
2022/09/26 13:00:55;;;;;;;1.83;0.40;;;13.20;99.90;;;;;;5094366;28;20421;-82
2022/09/26 13:04:06;;;;;;;3.00;1.00;;;13.20;99.90;;;;;;5094650;28;20521;-81
2022/09/26 13:06:54;;;;;;;3.27;0.60;;;13.20;99.90;;;;;;5014466;28;20434;-82
2022/09/26 13:09:43;;;;;;;1.80;0.50;;;13.10;99.90;;;;;;5094390;28;20434;-86
2022/09/26 13:12:39;;;;;;;1.20;0.53;;;13.10;99.90;;;;;;5088526;28;20858;-81
2022/09/26 13:15:43;;;;;;;2.10;0.30;;;13.00;99.90;;;;;;5085162;28;20453;-81
2022/09/26 13:18:19;;;;;;;1.67;0.80;;;13.00;99.90;;;;;;5093989;28;20463;-84
2022/09/26 13:20:52;;;;;;;3.20;0.80;;;13.00;99.90;;;;;;5093965;28;20894;-82
2022/09/26 13:23:39;;;;;;;1.30;0.60;;;13.00;99.90;;;;;;5093819;28;20985;-81
2022/09/26 13:26:24;;;;;;;3.33;0.50;;;13.00;99.90;;;;;;5093779;28;20479;-82
2022/09/26 13:29:02;;;;;;;1.07;0.40;;;13.00;99.90;;;;;;5093803;28;20902;-82
2022/09/26 13:31:40;;;;;;;2.87;0.77;;;13.00;99.90;;;;;;5093451;28;20405;-82
2022/09/26 13:34:15;;;;;;;1.27;0.30;;;13.10;99.90;;;;;;5075465;28;20432;-82
2022/09/26 13:36:42;;;;;;;1.60;0.50;;;13.00;99.90;;;;;;5093657;28;20413;-81
2022/09/26 13:39:14;;;;;;;1.17;0.53;;;13.00;99.90;;;;;;5093724;28;20444;-82